Latest Weather Observations for Low Rocky Point

IDT60801

Issued at 10:11 am EST Friday 14 May 2021 (issued every 10 minutes, with the page automatically refreshed every 10 minutes)

About weather observations | Map of weather stations | Latest weather observations for TAS | Other Formats
Station Details ID: 097080 Name: LOW ROCKY POINT Lat: -42.98 Lon: 145.50 Height: 34.0 m
Data from the previous 72 hours. | See also: Recent months at Low Rocky Point
Date/Time
EST
Temp
°C
App
Temp
°C
Dew
Point
°C
Rel
Hum
%
Delta-T
°C
Wind Press
QNH
hPa
Press
MSL
hPa
Rain since
9am
mm
Dir  Spd
km/h
Gust
km/h
Spd
kts
Gust
kts
14/10:00am 8.2 1.7 6.5 89 0.8 SSW 30 44 16 24 1005.4 1005.4 0.4
14/09:30am 9.1 1.4 6.9 86 1.0 SSW 37 57 20 31 1004.9 1004.9 0.0
14/09:05am 8.1 -0.8 6.7 91 0.6 SW 43 61 23 33 1004.5 1004.5 0.0
14/09:00am 8.6 -0.4 7.4 92 0.6 SW 44 61 24 33 1004.4 1004.4 19.4
14/08:35am 8.4 0.2 6.7 89 0.8 SW 39 57 21 31 1003.6 1003.6 19.0
14/08:30am 8.3 0.4 6.3 87 0.9 SW 37 54 20 29 1003.4 1003.4 19.0
14/08:00am 9.3 1.0 6.0 80 1.5 SW 39 57 21 31 1002.6 1002.6 19.0
14/07:30am 9.3 1.0 6.0 80 1.5 WSW 39 59 21 32 1001.7 1001.7 19.0
14/07:12am 9.9 1.6 6.1 77 1.8 WSW 39 59 21 32 1001.2 1001.2 19.0
14/07:00am 9.2 0.7 5.2 76 1.8 WSW 39 48 21 26 1001.1 1001.1 19.0
14/06:45am 9.1 1.1 5.7 79 1.5 WSW 37 54 20 29 1000.9 1000.9 19.0
14/06:30am 9.9 1.1 5.7 75 1.9 W 41 50 22 27 1000.7 1000.7 19.0
14/06:00am 9.4 2.0 5.2 75 1.9 WSW 33 46 18 25 1000.3 1000.3 19.0
14/05:38am 9.5 1.2 6.0 79 1.6 W 39 48 21 26 1000.4 1000.4 19.0
14/05:30am 9.5 1.2 6.0 79 1.6 WNW 39 46 21 25 1000.2 1000.2 19.0
14/05:00am 9.8 -0.4 5.4 74 2.0 W 48 59 26 32 1000.1 1000.1 19.0
14/04:30am 9.2 0.1 6.1 81 1.4 W 43 52 23 28 999.9 999.9 19.0
14/04:00am 9.6 -0.1 6.0 78 1.7 W 46 57 25 31 1000.2 1000.2 19.0
14/03:30am 9.2 -1.6 5.8 79 1.6 W 52 65 28 35 1000.2 1000.2 19.0
14/03:00am 8.5 -1.4 6.5 87 0.9 W 48 72 26 39 1000.5 1000.5 19.0
14/02:50am 9.8 0.7 6.7 81 1.5 W 44 65 24 35 1000.5 1000.5 18.2
14/02:30am 9.6 0.0 6.3 80 1.5 W 46 56 25 30 1000.5 1000.5 18.2
14/02:18am 9.1 -1.6 6.4 83 1.2 W 52 72 28 39 1000.5 1000.5 18.2
14/02:14am 9.5 -0.4 6.8 83 1.3 W 48 72 26 39 1000.3 1000.3 18.2
14/02:04am 9.7 2.1 7.6 87 1.0 WNW 37 56 20 30 1000.5 1000.5 18.2
14/02:00am 9.3 2.1 7.6 89 0.8 WNW 35 50 19 27 1000.5 1000.5 18.2
14/01:51am 9.1 1.5 7.5 90 0.8 WNW 37 50 20 27 1000.6 1000.6 18.2
14/01:30am 7.7 2.9 7.3 97 0.2 NNW 22 32 12 17 1001.2 1001.2 18.2
14/01:00am 8.6 2.8 7.8 95 0.4 NW 28 37 15 20 1001.6 1001.6 16.8
14/12:30am 7.8 1.0 7.1 95 0.3 WNW 32 39 17 21 1002.1 1002.1 16.4
14/12:00am 8.1 1.3 6.9 92 0.6 NW 32 61 17 33 1002.6 1002.6 14.6
 
Date/Time
EST
Temp
°C
App
Temp
°C
Dew
Point
°C
Rel
Hum
%
Delta-T
°C
Wind Press
QNH
hPa
Press
MSL
hPa
Rain since
9am
mm
Dir  Spd
km/h
Gust
km/h
Spd
kts
Gust
kts
13/11:34pm 8.2 2.5 6.5 89 0.8 NNW 26 48 14 26 1002.9 1002.9 14.2
13/11:30pm 7.6 1.6 5.4 86 1.0 N 26 48 14 26 1003.0 1003.0 14.0
13/11:00pm 10.4 2.8 4.1 65 2.8 NNW 33 43 18 23 1003.1 1003.1 13.4
13/10:30pm 10.0 3.6 5.4 73 2.1 NW 28 35 15 19 1003.6 1003.6 13.4
13/10:00pm 10.1 2.7 3.8 65 2.8 NW 32 43 17 23 1004.1 1004.1 13.4
13/09:30pm 10.0 1.9 3.3 63 2.9 WNW 35 43 19 23 1004.4 1004.4 13.4
13/09:00pm 9.7 2.1 4.1 68 2.5 WNW 33 46 18 25 1004.7 1004.7 13.4
13/08:30pm 9.6 2.2 4.8 72 2.2 WNW 33 41 18 22 1004.9 1004.9 13.4
13/08:00pm 9.4 -1.3 4.6 72 2.1 WNW 50 63 27 34 1005.1 1005.1 13.4
13/07:53pm 9.0 0.4 4.6 74 2.0 W 39 63 21 34 1005.0 1005.0 13.4
13/07:51pm 9.3 1.7 5.7 78 1.6 W 35 59 19 32 1005.2 1005.2 13.4
13/07:30pm 8.7 1.5 5.8 82 1.3 WSW 33 39 18 21 1005.3 1005.3 13.4
13/07:18pm 9.2 1.7 6.5 83 1.3 WNW 35 54 19 29 1005.4 1005.4 13.4
13/07:00pm 9.2 -0.2 5.2 76 1.8 WNW 44 54 24 29 1004.9 1004.9 13.4
13/06:30pm 9.1 0.3 5.5 78 1.6 W 41 57 22 31 1004.7 1004.7 13.4
13/06:00pm 10.3 1.5 5.7 73 2.1 WNW 41 54 22 29 1004.5 1004.5 13.4
13/05:30pm 9.8 1.4 5.8 76 1.8 W 39 48 21 26 1004.4 1004.4 13.4
13/05:00pm 9.9 0.7 6.3 78 1.7 W 44 54 24 29 1004.4 1004.4 13.4
13/04:30pm 9.6 2.6 6.7 82 1.4 WSW 33 41 18 22 1004.4 1004.4 13.4
13/04:07pm 10.2 0.9 6.0 75 1.9 W 44 63 24 34 1004.2 1004.2 13.4
13/04:00pm 10.5 1.0 4.9 68 2.5 W 44 57 24 31 1004.1 1004.1 13.4
13/03:30pm 11.6 2.8 5.7 67 2.7 W 41 50 22 27 1003.9 1003.9 13.4
13/03:00pm 11.2 2.1 5.7 69 2.6 W 43 52 23 28 1003.6 1003.6 13.4
13/02:35pm 9.7 0.5 6.2 79 1.6 W 44 63 24 34 1003.8 1003.8 13.4
13/02:30pm 10.2 0.3 6.4 77 1.8 W 48 63 26 34 1003.8 1003.8 13.4
13/02:00pm 11.8 2.4 7.1 73 2.3 W 46 56 25 30 1003.7 1003.7 13.4
13/01:30pm 11.2 0.6 6.7 74 2.1 W 52 61 28 33 1003.6 1003.6 13.4
13/01:00pm 10.8 1.6 7.9 82 1.4 W 46 59 25 32 1003.2 1003.2 13.4
13/12:30pm 9.3 2.4 8.7 96 0.3 WNW 35 43 19 23 1003.5 1003.5 13.2
13/12:00pm 9.3 0.7 8.7 96 0.3 WNW 44 56 24 30 1003.7 1003.7 10.8
13/11:30am 9.5 -1.4 9.0 97 0.2 W 56 69 30 37 1003.2 1003.2 9.0
13/11:00am 10.2 -0.7 9.7 97 0.3 W 57 76 31 41 1003.0 1003.0 8.0
13/10:33am 10.9 2.4 10.7 99 0.1 W 46 65 25 35 1002.6 1002.6 6.6
13/10:30am 10.7 2.2 10.5 99 0.1 W 46 57 25 31 1002.5 1002.5 6.4
13/10:12am 10.7 2.5 10.5 99 0.1 WNW 44 67 24 36 1002.5 1002.5 4.6
13/10:06am 11.1 4.4 10.9 99 0.1 NNW 37 56 20 30 1002.2 1002.2 3.2
13/10:01am 11.9 5.8 11.7 99 0.1 NNW 35 54 19 29 1001.5 1001.5 1.2
13/10:00am 12.0 5.5 11.8 99 0.1 NNW 37 54 20 29 1001.5 1001.5 1.0
13/09:30am 12.1 5.5 11.5 96 0.3 NNW 37 57 20 31 1001.9 1001.9 0.2
13/09:00am 12.7 5.2 10.8 88 1.0 NNW 41 59 22 32 1002.3 1002.3 0.0
13/08:36am 12.0 6.1 10.4 90 0.8 NNW 32 50 17 27 1002.5 1002.5 0.0
13/08:30am 11.9 6.7 10.1 89 0.9 NNW 28 41 15 22 1002.8 1002.8 0.0
13/08:00am 13.0 6.8 9.3 78 1.9 N 32 48 17 26 1003.2 1003.2 0.0
13/07:30am 12.8 6.6 9.4 80 1.7 N 32 41 17 22 1003.5 1003.5 0.0
13/07:03am 12.8 7.0 9.4 80 1.7 NNW 30 48 16 26 1004.2 1004.2 0.0
13/07:00am 12.8 6.6 9.3 79 1.8 NNW 32 43 17 23 1004.3 1004.3 0.0
13/06:30am 12.9 6.6 9.7 81 1.6 NNW 33 46 18 25 1004.7 1004.7 0.0
13/06:00am 13.0 6.2 10.7 86 1.2 NNW 37 54 20 29 1005.1 1005.1 0.0
13/05:30am 13.1 6.3 10.8 86 1.2 NNW 37 57 20 31 1005.8 1005.8 0.0
13/05:00am 13.3 6.0 11.7 90 0.9 NNW 41 59 22 32 1006.2 1006.2 0.0
13/04:30am 12.6 6.1 11.7 94 0.5 NNW 37 56 20 30 1006.5 1006.5 0.0
13/04:26am 12.6 6.1 11.8 95 0.4 NNW 37 56 20 30 1006.5 1006.5 0.0
13/04:00am 12.4 4.8 11.8 96 0.3 NNW 43 59 23 32 1006.8 1006.8 0.0
13/03:49am 12.2 6.9 11.4 95 0.4 NNW 30 57 16 31 1007.2 1007.2 0.0
13/03:48am 12.2 7.3 11.3 94 0.5 NNW 28 48 15 26 1007.2 1007.2 0.0
13/03:30am 10.9 6.1 9.0 88 0.9 N 24 30 13 16 1007.5 1007.5 0.0
13/03:00am 10.4 5.8 8.3 87 1.0 N 22 28 12 15 1008.3 1008.4 0.0
13/02:30am 9.6 5.2 7.4 86 1.0 N 20 26 11 14 1008.9 1009.0 0.0
13/02:00am 9.7 5.3 7.3 85 1.1 N 20 26 11 14 1009.4 1009.5 0.0
13/01:30am 8.9 4.5 6.5 85 1.1 NNE 19 28 10 15 1010.0 1010.1 0.0
13/01:00am 8.7 3.6 5.8 82 1.3 NNE 22 28 12 15 1011.1 1011.2 0.0
13/12:30am 8.0 2.7 4.9 81 1.4 NNE 22 28 12 15 1012.0 1012.1 0.0
13/12:00am 8.2 2.5 5.0 80 1.4 NNE 24 28 13 15 1012.7 1012.8 0.0
 
Date/Time
EST
Temp
°C
App
Temp
°C
Dew
Point
°C
Rel
Hum
%
Delta-T
°C
Wind Press
QNH
hPa
Press
MSL
hPa
Rain since
9am
mm
Dir  Spd
km/h
Gust
km/h
Spd
kts
Gust
kts
12/11:30pm 7.8 2.4 4.6 80 1.4 NNE 22 26 12 14 1013.0 1013.1 0.0
12/11:00pm 8.0 2.7 4.8 80 1.4 NNE 22 26 12 14 1014.0 1014.1 0.0
12/10:30pm 7.9 2.2 4.7 80 1.4 NNE 24 28 13 15 1014.9 1015.0 0.0
12/10:00pm 7.8 2.0 4.6 80 1.4 NNE 24 28 13 15 1015.4 1015.5 0.0
12/09:30pm 7.8 2.0 4.6 80 1.4 NNE 24 28 13 15 1016.3 1016.3 0.0
12/09:00pm 7.6 1.8 4.2 79 1.5 NNE 24 28 13 15 1016.6 1016.6 0.0
12/08:30pm 8.9 3.2 4.7 75 1.9 NNE 24 28 13 15 1017.2 1017.2 0.0
12/08:00pm 8.9 3.2 4.7 75 1.9 NNE 24 28 13 15 1017.8 1017.8 0.0
12/07:30pm 8.9 4.0 4.9 76 1.8 NNE 20 24 11 13 1018.4 1018.4 0.0
12/07:00pm 8.7 4.5 5.6 81 1.4 NE 17 19 9 10 1018.8 1018.8 0.0
12/06:30pm 9.1 5.3 5.7 79 1.5 NNE 15 17 8 9 1019.3 1019.3 0.0
12/06:00pm 9.6 6.2 5.8 77 1.7 N 13 15 7 8 1019.6 1019.6 0.0
12/05:30pm 10.0 7.0 6.0 76 1.8 N 11 11 6 6 1020.0 1020.0 0.0
12/05:00pm 11.1 8.5 6.3 72 2.2 NNW 9 15 5 8 1020.3 1020.3 0.0
12/04:30pm 12.7 9.4 6.3 65 3.0 NW 13 17 7 9 1020.8 1020.8 0.0
12/04:00pm 13.1 9.4 6.2 63 3.3 NW 15 19 8 10 1021.2 1021.2 0.0
12/03:30pm 13.5 9.4 6.1 61 3.5 NW 17 20 9 11 1021.4 1021.4 0.0
12/03:00pm 13.5 8.7 5.7 59 3.7 NW 20 24 11 13 1021.9 1021.9 0.0
12/02:30pm 13.7 8.2 6.1 60 3.6 NW 24 32 13 17 1022.5 1022.5 0.0
12/02:00pm 13.5 8.0 5.7 59 3.7 NW 24 30 13 16 1023.1 1023.1 0.0
12/01:30pm 13.5 8.2 5.2 57 3.9 NW 22 30 12 16 1023.6 1023.6 0.0
12/01:00pm 13.3 6.9 5.2 58 3.8 NW 28 35 15 19 1024.3 1024.3 0.0
12/12:30pm 13.6 8.7 3.9 52 4.4 NW 19 26 10 14 1024.8 1024.8 0.0
12/12:00pm 13.5 9.3 3.8 52 4.4 N 15 22 8 12 1025.5 1025.5 0.0
12/11:30am 13.1 9.0 4.3 55 4.0 NE 15 22 8 12 1026.1 1026.1 0.0
12/11:00am 12.0 7.4 3.8 57 3.6 NE 17 24 9 13 1026.8 1026.8 0.0
12/10:30am 11.3 6.7 3.8 60 3.3 NE 17 22 9 12 1027.4 1027.4 0.0
12/10:00am 10.1 4.5 3.2 62 3.0 NE 22 32 12 17 1027.8 1027.8 0.0
12/09:30am 9.1 3.0 2.7 64 2.7 NE 24 33 13 18 1028.2 1028.2 0.0
12/09:00am 8.1 1.9 2.4 67 2.4 NE 24 32 13 17 1028.4 1028.4 0.0
12/08:30am 6.4 0.6 2.1 74 1.8 NE 22 28 12 15 1028.4 1028.4 0.0
12/08:00am 5.6 -0.3 1.7 76 1.5 NE 22 28 12 15 1028.3 1028.3 0.0
12/07:30am 5.2 -1.5 1.5 77 1.5 NE 26 32 14 17 1028.2 1028.2 0.0
12/07:00am 5.3 -1.4 1.6 77 1.5 NE 26 32 14 17 1028.2 1028.2 0.0
12/06:30am 5.7 -0.6 1.8 76 1.6 NE 24 32 13 17 1028.3 1028.3 0.0
12/06:00am 6.4 0.6 2.3 75 1.7 NNE 22 30 12 16 1028.2 1028.2 0.0
12/05:30am 7.0 1.3 2.7 74 1.8 NNE 22 28 12 15 1028.2 1028.2 0.0
12/05:00am 7.2 1.5 2.9 74 1.8 NNE 22 26 12 14 1028.4 1028.4 0.0
12/04:30am 7.1 1.4 2.6 73 1.9 NNE 22 30 12 16 1028.6 1028.6 0.0
12/04:00am 7.0 1.6 2.7 74 1.8 NNE 20 26 11 14 1028.5 1028.5 0.0
12/03:30am 7.0 1.6 2.7 74 1.8 NE 20 28 11 15 1028.5 1028.5 0.0
12/03:00am 6.9 0.8 3.0 76 1.6 NNE 24 30 13 16 1028.8 1028.8 0.0
12/02:30am 6.7 1.0 2.6 75 1.7 NNE 22 28 12 15 1028.9 1028.9 0.0
12/02:00am 6.4 0.6 2.5 76 1.6 NNE 22 28 12 15 1029.1 1029.1 0.0
12/01:30am 6.1 0.3 2.2 76 1.6 NNE 22 28 12 15 1029.1 1029.1 0.0
12/01:00am 5.4 -0.8 1.9 78 1.4 NNE 24 32 13 17 1029.2 1029.2 0.0
12/12:30am 4.9 -1.8 1.4 78 1.4 NNE 26 32 14 17 1029.1 1029.1 0.0
12/12:00am 5.0 -1.3 1.3 77 1.4 NE 24 32 13 17 1029.3 1029.3 0.0
 
Date/Time
EST
Temp
°C
App
Temp
°C
Dew
Point
°C
Rel
Hum
%
Delta-T
°C
Wind Press
QNH
hPa
Press
MSL
hPa
Rain since
9am
mm
Dir  Spd
km/h
Gust
km/h
Spd
kts
Gust
kts
11/11:30pm 5.0 -1.3 1.3 77 1.5 NE 24 30 13 16 1029.5 1029.5 0.0
11/11:00pm 5.1 -1.2 1.4 77 1.4 NNE 24 28 13 15 1029.5 1029.5 0.0
11/10:30pm 5.3 -0.6 1.4 76 1.5 NNE 22 28 12 15 1029.6 1029.6 0.0
11/10:00pm 5.5 -0.8 1.6 76 1.5 NE 24 32 13 17 1029.4 1029.4 0.0
11/09:30pm 5.4 -0.5 1.7 77 1.5 NE 22 30 12 16 1029.2 1029.2 0.0
11/09:00pm 5.3 -0.6 1.6 77 1.5 NE 22 28 12 15 1029.1 1029.1 0.0
11/08:30pm 4.5 -0.9 1.4 80 1.2 NE 19 24 10 13 1029.0 1029.0 0.0
11/08:00pm 5.2 0.6 1.5 77 1.5 ENE 15 19 8 10 1028.9 1028.9 0.0
11/07:30pm 5.1 -0.2 1.8 79 1.3 NE 19 22 10 12 1028.5 1028.5 0.0
11/07:00pm 5.5 0.9 1.6 76 1.5 ENE 15 20 8 11 1028.5 1028.5 0.0
11/06:30pm 6.7 1.9 2.8 76 1.6 E 17 20 9 11 1028.3 1028.3 0.0
11/06:00pm 6.8 2.7 2.1 72 1.9 E 13 17 7 9 1028.2 1028.2 0.0
11/05:30pm 7.1 3.0 2.0 70 2.1 E 13 17 7 9 1027.9 1027.9 0.0
11/05:00pm 8.2 3.6 1.8 64 2.6 ENE 15 20 8 11 1027.6 1027.6 0.0
11/04:30pm 9.9 6.3 2.7 61 3.1 ESE 11 17 6 9 1027.3 1027.3 0.0
11/04:00pm 10.8 6.4 2.6 57 3.5 E 15 22 8 12 1026.8 1026.8 0.0
11/03:30pm 11.4 6.5 2.2 53 3.9 E 17 22 9 12 1026.5 1026.5 0.0
11/03:00pm 11.6 6.8 2.6 54 3.9 ESE 17 28 9 15 1026.2 1026.2 0.0
11/02:30pm 11.9 7.2 3.4 56 3.8 ESE 17 24 9 13 1026.2 1026.2 0.0
11/02:00pm 11.8 6.5 2.8 54 3.9 ESE 20 28 11 15 1026.2 1026.2 0.0
11/01:30pm 11.9 6.6 3.2 55 3.8 ESE 20 28 11 15 1026.2 1026.2 0.0
11/01:00pm 11.8 6.0 2.5 53 4.0 ESE 22 30 12 16 1026.3 1026.3 0.0
11/12:30pm 11.5 6.4 3.3 57 3.6 ESE 19 28 10 15 1026.4 1026.4 0.0
11/12:00pm 11.4 5.7 2.9 56 3.7 ESE 22 32 12 17 1026.6 1026.6 0.0
11/11:30am 11.8 6.4 2.5 53 4.0 ESE 20 32 11 17 1026.7 1026.7 0.0
11/11:00am 11.4 6.3 2.9 56 3.7 E 19 26 10 14 1026.7 1026.7 0.0
11/10:30am 11.2 6.3 2.2 54 3.9 E 17 26 9 14 1026.4 1026.4 0.0

Other formats

Comma delimited format used in spreadsheet applications
http://www.bom.gov.au/fwo/IDT60801/IDT60801.95961.axf

JavaScript Object Notation format (JSON) in row-major order
http://www.bom.gov.au/fwo/IDT60801/IDT60801.95961.json

Data quality

Most of these data are generated automatically and are frequently updated. Quality checks on data are not normally performed. It is possible for incorrect values to appear. Refer to information at About Latest Weather Observations and please check the disclaimer before using these data.